createdAt,value
2018-05-13T00:01:04.275Z,7.80
2018-05-13T00:03:32.495Z,7.83
2018-05-13T00:06:01.090Z,7.73
2018-05-13T00:08:30.155Z,7.87
2018-05-13T00:10:58.404Z,8.50
2018-05-13T00:13:27.315Z,8.20
2018-05-13T00:15:55.572Z,8.37
2018-05-13T00:18:23.819Z,8.00
2018-05-13T00:20:52.768Z,8.00
2018-05-13T00:23:21.008Z,7.93
2018-05-13T00:25:49.247Z,8.77
2018-05-13T00:28:17.887Z,7.63
2018-05-13T00:30:46.130Z,7.60
2018-05-13T00:33:15.384Z,8.67
2018-05-13T00:35:43.807Z,8.70
2018-05-13T00:38:12.982Z,7.47
2018-05-13T00:40:41.137Z,8.17
2018-05-13T00:43:09.436Z,7.20
2018-05-13T00:45:38.912Z,7.70
2018-05-13T00:48:08.047Z,8.60
2018-05-13T00:50:37.106Z,8.77
2018-05-13T00:53:05.299Z,8.30
2018-05-13T00:55:33.565Z,8.10
2018-05-13T00:58:02.530Z,8.67
2018-05-13T01:00:30.872Z,8.27
2018-05-13T01:02:59.373Z,9.17
2018-05-13T01:05:27.615Z,8.60
2018-05-13T01:07:56.729Z,9.17
2018-05-13T01:10:24.887Z,9.60
2018-05-13T01:12:53.924Z,8.80
2018-05-13T01:15:22.540Z,8.63
2018-05-13T01:17:50.687Z,9.03
2018-05-13T01:20:18.923Z,9.77
2018-05-13T01:22:47.319Z,9.63
2018-05-13T01:25:16.527Z,8.67
2018-05-13T01:27:44.783Z,8.97
2018-05-13T01:30:13.452Z,8.60
2018-05-13T01:32:42.408Z,8.70
2018-05-13T01:35:10.695Z,7.57
2018-05-13T01:37:38.907Z,8.93
2018-05-13T01:40:07.352Z,8.77
2018-05-13T01:42:37.204Z,9.40
2018-05-13T01:45:13.444Z,9.17
2018-05-13T01:47:42.776Z,9.40
2018-05-13T01:50:10.991Z,8.57
2018-05-13T01:52:39.301Z,8.73
2018-05-13T01:55:08.236Z,8.57
2018-05-13T01:57:37.787Z,8.77
2018-05-13T02:00:08.096Z,8.70
2018-05-13T02:02:36.976Z,8.80
2018-05-13T02:05:05.313Z,8.80
2018-05-13T02:07:33.552Z,9.43
2018-05-13T02:10:03.216Z,9.17
2018-05-13T02:12:31.514Z,9.03
2018-05-13T02:14:59.748Z,8.50
2018-05-13T02:17:27.923Z,8.03
2018-05-13T02:19:57.140Z,7.97
2018-05-13T02:22:25.779Z,7.93
2018-05-13T02:24:54.848Z,8.27
2018-05-13T02:27:23.135Z,7.57
2018-05-13T02:29:52.116Z,8.03
2018-05-13T02:32:20.596Z,8.40
2018-05-13T02:34:49.524Z,8.10
2018-05-13T02:37:17.762Z,7.87
2018-05-13T02:39:46.752Z,8.40
2018-05-13T02:42:15.026Z,8.20
2018-05-13T02:44:43.280Z,7.70
2018-05-13T02:47:11.808Z,8.63
2018-05-13T02:49:40.772Z,8.47
2018-05-13T02:52:09.063Z,8.90
2018-05-13T02:54:38.057Z,8.00
2018-05-13T02:57:07.067Z,9.03
2018-05-13T02:59:35.564Z,8.07
2018-05-13T03:02:04.171Z,8.90
2018-05-13T03:04:32.451Z,9.27
2018-05-13T03:07:00.973Z,8.60
2018-05-13T03:09:29.960Z,8.37
2018-05-13T03:11:59.547Z,8.77
2018-05-13T03:14:29.071Z,8.43
2018-05-13T03:16:58.924Z,8.70
2018-05-13T03:19:27.246Z,8.40
2018-05-13T03:21:55.495Z,8.50
2018-05-13T03:24:23.713Z,8.40
2018-05-13T03:26:52.960Z,8.30
2018-05-13T03:29:21.278Z,9.03
2018-05-13T03:31:49.539Z,8.63
2018-05-13T03:34:17.871Z,9.27
2018-05-13T03:36:46.366Z,8.67
2018-05-13T03:39:14.660Z,8.80
2018-05-13T03:41:42.920Z,9.10
2018-05-13T03:44:12.045Z,9.03
2018-05-13T03:46:40.339Z,8.17
2018-05-13T03:49:08.544Z,8.53
2018-05-13T03:51:37.667Z,8.13
2018-05-13T03:54:05.823Z,7.97
2018-05-13T03:56:34.120Z,7.87
2018-05-13T03:59:02.780Z,7.53
2018-05-13T04:01:30.985Z,8.43
2018-05-13T04:03:59.305Z,8.67
2018-05-13T04:06:28.585Z,8.90
2018-05-13T04:11:12.243Z,9.23
2018-05-13T04:15:48.448Z,8.80
2018-05-13T04:18:17.418Z,10.13
2018-05-13T04:20:46.624Z,10.53
2018-05-13T04:23:14.904Z,9.90
2018-05-13T04:25:43.908Z,10.40
2018-05-13T04:28:12.064Z,11.73
2018-05-13T04:30:41.917Z,11.13
2018-05-13T04:33:10.136Z,12.87
2018-05-13T04:35:38.397Z,12.27
2018-05-13T04:38:06.808Z,12.80
2018-05-13T04:40:35.977Z,11.80
2018-05-13T04:43:04.240Z,13.67
2018-05-13T04:45:32.996Z,12.63
2018-05-13T04:48:01.144Z,12.87
2018-05-13T04:50:30.048Z,14.47
2018-05-13T04:52:58.640Z,13.57
2018-05-13T04:55:26.813Z,14.40
2018-05-13T04:57:55.767Z,14.57
2018-05-13T05:00:24.907Z,13.60
2018-05-13T05:02:53.433Z,14.27
2018-05-13T05:05:21.663Z,13.73
2018-05-13T05:07:50.776Z,15.97
2018-05-13T05:10:19.003Z,15.63
2018-05-13T05:12:48.171Z,15.00
2018-05-13T05:15:16.939Z,14.57
2018-05-13T05:17:45.092Z,14.30
2018-05-13T05:20:13.297Z,14.50
2018-05-13T05:22:42.384Z,14.27
2018-05-13T05:25:10.588Z,16.17
2018-05-13T05:27:39.548Z,14.90
2018-05-13T05:30:08.803Z,14.90
2018-05-13T05:32:38.767Z,16.40
2018-05-13T05:35:06.943Z,17.77
2018-05-13T05:37:35.254Z,17.47
2018-05-13T05:40:04.228Z,18.40
2018-05-13T05:42:32.495Z,18.83
2018-05-13T05:45:02.191Z,19.27
2018-05-13T05:47:30.417Z,20.93
2018-05-13T05:49:59.649Z,20.57
2018-05-13T05:52:28.125Z,22.27
2018-05-13T05:54:56.292Z,21.40
2018-05-13T05:57:24.435Z,21.63
2018-05-13T05:59:52.549Z,21.87
2018-05-13T06:02:20.662Z,21.50
2018-05-13T06:04:49.118Z,23.47
2018-05-13T06:07:17.482Z,25.60
2018-05-13T06:09:45.570Z,22.50
2018-05-13T06:12:13.776Z,24.30
2018-05-13T06:14:42.642Z,24.97
2018-05-13T06:17:11.418Z,23.50
2018-05-13T06:19:39.855Z,23.30
2018-05-13T06:22:07.930Z,24.67
2018-05-13T06:24:36.078Z,25.97
2018-05-13T06:27:04.530Z,25.87
2018-05-13T06:29:32.557Z,26.30
2018-05-13T06:32:01.342Z,26.83
2018-05-13T06:34:30.342Z,25.87
2018-05-13T06:36:58.700Z,26.80
2018-05-13T06:39:27.484Z,25.60
2018-05-13T06:41:56.413Z,25.97
2018-05-13T06:44:28.766Z,27.97
2018-05-13T06:46:57.858Z,26.03
2018-05-13T06:49:26.871Z,27.57
2018-05-13T06:51:54.974Z,27.93
2018-05-13T06:54:23.192Z,26.77
2018-05-13T06:56:51.984Z,26.47
2018-05-13T06:59:20.980Z,26.17
2018-05-13T07:01:49.877Z,26.80
2018-05-13T07:04:18.434Z,26.93
2018-05-13T07:06:46.874Z,27.00
2018-05-13T07:09:15.015Z,28.60
2018-05-13T07:18:26.867Z,25.70
2018-05-13T07:20:55.403Z,26.70
2018-05-13T07:23:23.525Z,26.40
2018-05-13T07:25:51.894Z,26.63
2018-05-13T07:28:20.142Z,26.80
2018-05-13T07:30:49.306Z,28.00
2018-05-13T07:33:17.373Z,26.87
2018-05-13T07:35:45.544Z,26.77
2018-05-13T07:38:13.840Z,27.33
2018-05-13T07:40:43.214Z,30.27
2018-05-13T07:43:11.322Z,28.73
2018-05-13T07:45:39.814Z,28.80
2018-05-13T07:48:08.880Z,28.53
2018-05-13T07:50:36.987Z,27.43
2018-05-13T07:53:07.057Z,29.60
2018-05-13T07:55:35.146Z,28.00
2018-05-13T07:58:03.651Z,27.03
2018-05-13T08:00:31.945Z,27.73
2018-05-13T08:03:00.864Z,28.30
2018-05-13T08:05:29.335Z,26.60
2018-05-13T08:07:57.831Z,26.93
2018-05-13T08:10:34.359Z,26.37
2018-05-13T08:14:32.515Z,28.43
2018-05-13T08:17:01.427Z,27.20
2018-05-13T08:19:30.249Z,28.63
2018-05-13T08:22:01.875Z,28.73
2018-05-13T08:24:30.905Z,27.93
2018-05-13T08:26:59.796Z,28.00
2018-05-13T08:29:28.785Z,29.93
2018-05-13T08:31:57.855Z,29.67
2018-05-13T08:34:26.415Z,30.53
2018-05-13T08:37:09.043Z,34.97
2018-05-13T08:39:42.338Z,31.00
2018-05-13T08:42:11.776Z,31.27
2018-05-13T08:44:40.450Z,32.97
2018-05-13T08:47:08.976Z,33.27
2018-05-13T08:49:37.144Z,34.87
2018-05-13T08:52:05.932Z,34.97
2018-05-13T08:54:34.355Z,35.00
2018-05-13T08:57:02.484Z,37.30
2018-05-13T08:59:30.884Z,38.70
2018-05-13T09:02:03.678Z,38.33
2018-05-13T09:04:34.780Z,42.43
2018-05-13T09:07:03.903Z,42.37
2018-05-13T09:09:34.928Z,44.80
2018-05-13T09:12:03.906Z,45.77
2018-05-13T09:14:32.011Z,45.17
2018-05-13T09:17:02.170Z,47.20
2018-05-13T09:19:30.507Z,49.27
2018-05-13T09:21:59.721Z,50.07
2018-05-13T09:24:28.579Z,49.33
2018-05-13T09:26:56.642Z,50.03
2018-05-13T09:29:25.282Z,47.83
2018-05-13T09:31:54.406Z,54.20
2018-05-13T09:34:23.553Z,50.17
2018-05-13T09:37:45.897Z,56.57
2018-05-13T09:40:14.806Z,52.77
2018-05-13T09:42:48.875Z,53.60
2018-05-13T09:45:20.275Z,51.97
2018-05-13T09:47:49.402Z,52.83
2018-05-13T09:50:17.795Z,55.30
2018-05-13T09:52:45.863Z,53.23
2018-05-13T09:55:14.136Z,54.50
2018-05-13T09:57:47.853Z,51.97
2018-05-13T10:00:16.314Z,50.47
2018-05-13T10:02:44.420Z,54.30
2018-05-13T10:05:13.322Z,58.77
2018-05-13T10:07:41.826Z,57.00
2018-05-13T10:10:16.508Z,55.00
2018-05-13T10:12:45.346Z,63.00
2018-05-13T10:15:14.166Z,56.30
2018-05-13T10:17:42.809Z,64.67
2018-05-13T10:20:11.022Z,64.83
2018-05-13T10:22:39.112Z,65.23
2018-05-13T10:25:07.164Z,72.37
2018-05-13T10:27:44.167Z,65.73
2018-05-13T10:30:15.240Z,67.80
2018-05-13T10:38:32.182Z,69.43
2018-05-13T10:41:00.711Z,67.87
2018-05-13T10:43:28.850Z,72.77
2018-05-13T10:45:57.412Z,66.53
2018-05-13T10:48:26.409Z,61.77
2018-05-13T10:50:55.145Z,63.47
2018-05-13T10:53:23.403Z,61.20
2018-05-13T10:55:51.602Z,65.40
2018-05-13T10:58:20.125Z,62.67
2018-05-13T11:00:48.915Z,76.30
2018-05-13T11:03:17.914Z,65.33
2018-05-13T11:05:46.063Z,65.10
2018-05-13T11:08:15.304Z,58.67
2018-05-13T11:10:44.324Z,66.03
2018-05-13T11:13:12.488Z,61.13
2018-05-13T11:15:40.778Z,53.50
2018-05-13T11:18:09.571Z,66.43
2018-05-13T11:20:37.892Z,62.13
2018-05-13T11:23:06.263Z,60.30
2018-05-13T11:25:35.147Z,71.80
2018-05-13T11:28:05.111Z,58.60
2018-05-13T11:30:33.991Z,53.70
2018-05-13T11:33:02.302Z,53.57
2018-05-13T11:35:30.948Z,55.60
2018-05-13T11:37:59.251Z,53.00
2018-05-13T11:40:27.731Z,57.27
2018-05-13T11:42:56.188Z,58.60
2018-05-13T11:45:24.467Z,52.53
2018-05-13T11:47:52.614Z,55.57
2018-05-13T11:50:21.105Z,52.70
2018-05-13T11:52:49.202Z,55.27
2018-05-13T11:55:17.375Z,56.47
2018-05-13T11:57:47.116Z,56.60
2018-05-13T12:00:15.758Z,50.97
2018-05-13T12:02:45.061Z,56.93
2018-05-13T12:05:13.914Z,60.67
2018-05-13T12:07:42.930Z,59.70
2018-05-13T12:10:11.127Z,61.67
2018-05-13T12:12:40.567Z,52.97
2018-05-13T12:15:09.549Z,56.03
2018-05-13T12:17:38.768Z,56.63
2018-05-13T12:20:07.699Z,55.53
2018-05-13T12:22:36.011Z,54.17
2018-05-13T12:25:04.386Z,50.77
2018-05-13T12:27:37.737Z,55.50
2018-05-13T12:30:09.064Z,56.40
2018-05-13T12:32:37.852Z,54.57
2018-05-13T12:35:06.845Z,62.77
2018-05-13T12:37:35.738Z,59.47
2018-05-13T12:40:05.878Z,54.03
2018-05-13T12:42:34.540Z,55.73
2018-05-13T12:45:03.548Z,54.13
2018-05-13T12:47:31.905Z,53.13
2018-05-13T12:50:01.979Z,54.13
2018-05-13T12:52:30.588Z,57.33
2018-05-13T12:54:58.671Z,56.53
2018-05-13T12:57:28.524Z,59.63
2018-05-13T12:59:57.105Z,53.60
2018-05-13T13:02:26.653Z,53.90
2018-05-13T13:04:54.831Z,57.90
2018-05-13T13:07:23.279Z,53.30
2018-05-13T13:09:51.452Z,55.30
2018-05-13T13:12:19.598Z,54.00
2018-05-13T13:14:48.250Z,56.00
2018-05-13T13:17:16.414Z,57.53
2018-05-13T13:19:45.033Z,62.33
2018-05-13T13:22:13.962Z,56.23
2018-05-13T13:24:42.261Z,55.10
2018-05-13T13:27:10.483Z,57.30
2018-05-13T13:29:43.244Z,52.57
2018-05-13T13:32:11.795Z,54.53
2018-05-13T13:34:39.886Z,51.53
2018-05-13T13:37:07.897Z,53.70
2018-05-13T13:39:36.126Z,50.80
2018-05-13T13:42:04.634Z,46.90
2018-05-13T13:44:34.131Z,51.67
2018-05-13T13:47:02.391Z,56.57
2018-05-13T13:49:30.587Z,51.50
2018-05-13T13:51:59.059Z,52.47
2018-05-13T13:54:27.982Z,51.10
2018-05-13T13:56:56.254Z,47.47
2018-05-13T13:59:24.516Z,51.63
2018-05-13T14:01:53.418Z,47.93
2018-05-13T14:04:21.725Z,44.17
2018-05-13T14:06:49.810Z,43.20
2018-05-13T14:09:17.886Z,47.47
2018-05-13T14:11:46.561Z,45.00
2018-05-13T14:14:14.944Z,45.77
2018-05-13T14:16:43.527Z,48.23
2018-05-13T14:19:12.453Z,52.33
2018-05-13T14:21:41.376Z,45.83
2018-05-13T14:24:09.429Z,47.73
2018-05-13T14:26:37.891Z,49.17
2018-05-13T14:29:06.804Z,50.00
2018-05-13T14:31:34.884Z,50.43
2018-05-13T14:34:03.039Z,50.87
2018-05-13T14:36:32.036Z,48.17
2018-05-13T14:39:11.820Z,46.80
2018-05-13T14:41:29.271Z,45.17
2018-05-13T14:43:57.659Z,46.57
2018-05-13T14:46:27.271Z,51.07
2018-05-13T14:48:56.258Z,46.57
2018-05-13T14:57:20.897Z,44.20
2018-05-13T14:59:50.074Z,42.83
2018-05-13T15:02:18.386Z,46.77
2018-05-13T15:04:47.415Z,46.87
2018-05-13T15:07:25.030Z,45.83
2018-05-13T15:09:53.625Z,49.73
2018-05-13T15:12:22.547Z,47.10
2018-05-13T15:14:53.065Z,46.43
2018-05-13T15:17:21.356Z,45.43
2018-05-13T15:19:49.664Z,44.87
2018-05-13T15:22:17.889Z,43.07
2018-05-13T15:24:47.880Z,44.00
2018-05-13T15:27:16.273Z,45.23
2018-05-13T15:29:44.478Z,45.10
2018-05-13T15:32:20.240Z,44.57
2018-05-13T15:34:48.570Z,43.00
2018-05-13T15:37:17.344Z,44.53
2018-05-13T15:39:45.635Z,42.87
2018-05-13T15:42:17.161Z,45.53
2018-05-13T15:45:00.045Z,44.10
2018-05-13T15:47:36.705Z,43.93
2018-05-13T15:50:05.028Z,44.80
2018-05-13T15:52:33.388Z,45.47
2018-05-13T15:55:01.654Z,45.43
2018-05-13T15:57:29.972Z,42.30
2018-05-13T15:59:58.273Z,44.87
2018-05-13T16:02:28.047Z,44.60
2018-05-13T16:04:56.424Z,44.97
2018-05-13T16:07:25.294Z,53.23
2018-05-13T16:09:53.632Z,64.77
2018-05-13T16:12:23.382Z,66.83
2018-05-13T16:14:51.545Z,42.93
2018-05-13T16:17:20.616Z,46.23
2018-05-13T16:19:50.582Z,48.80
2018-05-13T16:22:18.934Z,47.00
2018-05-13T16:24:47.285Z,45.20
2018-05-13T17:06:32.035Z,46.47
2018-05-13T17:09:00.860Z,44.80
2018-05-13T17:11:32.144Z,47.17
2018-05-13T17:14:03.418Z,46.07
2018-05-13T17:16:35.807Z,44.63
2018-05-13T17:19:04.228Z,44.13
2018-05-13T18:07:55.812Z,53.80
2018-05-13T18:10:24.147Z,54.37
2018-05-13T18:12:53.280Z,56.63
2018-05-13T18:15:22.012Z,58.73
2018-05-13T18:17:51.573Z,53.40
2018-05-13T18:20:19.781Z,55.57
2018-05-13T18:22:48.296Z,56.17
2018-05-13T18:25:16.532Z,52.70
2018-05-13T18:27:45.929Z,55.27
2018-05-13T18:30:15.301Z,57.33
2018-05-13T18:32:43.622Z,55.93
2018-05-13T18:35:12.732Z,53.10
2018-05-13T18:37:42.638Z,55.63
2018-05-13T18:40:11.860Z,56.33
2018-05-13T18:42:40.149Z,54.60
2018-05-13T18:47:44.201Z,55.90
2018-05-13T18:50:12.894Z,58.27
2018-05-13T18:52:41.360Z,55.83
2018-05-13T18:55:09.927Z,56.63
2018-05-13T18:57:39.175Z,56.53
2018-05-13T19:00:14.896Z,54.30
2018-05-13T19:02:43.310Z,53.97
2018-05-13T19:05:12.393Z,54.53
2018-05-13T19:07:41.468Z,56.40
2018-05-13T19:13:07.123Z,54.00
2018-05-13T19:15:45.249Z,52.70
2018-05-13T19:18:18.580Z,54.80
2018-05-13T19:20:48.152Z,53.80
2018-05-13T19:23:17.473Z,52.20
2018-05-13T19:25:52.707Z,52.73
2018-05-13T19:28:21.274Z,51.07
2018-05-13T19:44:45.785Z,53.90
2018-05-13T19:47:14.654Z,54.50
2018-05-13T19:49:45.184Z,53.47
2018-05-13T19:52:14.015Z,56.13
2018-05-13T19:54:42.809Z,51.00
2018-05-13T19:57:11.348Z,55.90
2018-05-13T19:59:41.024Z,56.90
2018-05-13T20:02:13.695Z,55.53
2018-05-13T20:04:42.007Z,57.37
2018-05-13T20:07:10.448Z,55.83
2018-05-13T20:09:40.089Z,59.27
2018-05-13T20:12:09.283Z,57.00
2018-05-13T20:14:37.567Z,51.23
2018-05-13T20:17:27.471Z,54.17
2018-05-13T20:19:56.505Z,53.77
2018-05-13T20:22:28.628Z,51.07
2018-05-13T20:24:57.369Z,57.53
2018-05-13T20:27:27.080Z,57.17
2018-05-13T20:29:57.925Z,55.37
2018-05-13T20:32:31.389Z,50.60
2018-05-13T20:35:00.708Z,54.07
2018-05-13T20:37:29.088Z,54.13
2018-05-13T20:39:57.588Z,55.27
2018-05-13T20:42:26.825Z,55.93
2018-05-13T20:44:56.479Z,55.03
2018-05-13T20:47:27.450Z,50.63
2018-05-13T20:50:07.801Z,56.50
